Time,TemperatureF,DewpointF,PressureIn,WindDirection,WindDirectionDegrees,WindSpeedMPH,WindSpeedGustMPH,Humidity,HourlyPrecipIn,Conditions,Clouds,dailyrainin,SoftwareType,DateUTC
2013-09-06 00:00:00,50.4,42.7,30.21,NNE,22,2.3,0.0,75,0.00,CLR,,0.00,WeatherDisplay:10.37,2013-09-06 04:00:00,
2013-09-06 00:01:00,50.4,42.7,30.21,East,81,0.0,0.0,75,0.00,CLR,,0.00,WeatherDisplay:10.37,2013-09-06 04:01:00,
2013-09-06 00:02:00,50.2,42.6,30.21,North,4,2.3,0.0,75,0.00,CLR,,0.00,WeatherDisplay:10.37,2013-09-06 04:02:00,
2013-09-06 00:07:00,50.2,42.9,30.21,ESE,119,0.0,0.0,76,0.00,CLR,,0.00,WeatherDisplay:10.37,2013-09-06 04:07:00,
2013-09-06 00:12:00,50.0,42.7,30.21,NE,44,2.3,0.0,76,0.00,CLR,,0.00,WeatherDisplay:10.37,2013-09-06 04:12:00,
2013-09-06 00:17:00,50.0,42.7,30.21,North,0,2.3,0.0,76,0.00,CLR,,0.00,WeatherDisplay:10.37,2013-09-06 04:17:00,
2013-09-06 00:22:00,49.8,42.9,30.21,East,87,0.0,0.0,77,0.00,CLR,,0.00,WeatherDisplay:10.37,2013-09-06 04:22:00,
2013-09-06 00:27:00,49.8,42.9,30.21,SSW,202,3.5,0.0,77,0.00,CLR,,0.00,WeatherDisplay:10.37,2013-09-06 04:27:00,
2013-09-06 00:32:00,49.6,42.7,30.21,SSE,164,3.5,0.0,77,0.00,CLR,,0.00,WeatherDisplay:10.37,2013-09-06 04:32:00,
2013-09-06 00:37:00,49.6,42.7,30.21,NE,36,3.5,0.0,77,0.00,CLR,,0.00,WeatherDisplay:10.37,2013-09-06 04:37:00,
2013-09-06 00:42:00,49.5,42.5,30.21,NNE,18,3.5,0.0,77,0.00,CLR,,0.00,WeatherDisplay:10.37,2013-09-06 04:42:00,
2013-09-06 00:47:00,49.6,42.7,30.21,NE,56,2.3,0.0,77,0.00,CLR,,0.00,WeatherDisplay:10.37,2013-09-06 04:47:00,
2013-09-06 00:52:00,49.8,42.9,30.21,ENE,61,3.5,0.0,77,0.00,CLR,,0.00,WeatherDisplay:10.37,2013-09-06 04:52:00,
2013-09-06 00:57:00,49.8,42.9,30.21,ENE,59,3.5,0.0,77,0.00,CLR,,0.00,WeatherDisplay:10.37,2013-09-06 04:57:00,
2013-09-06 01:02:00,49.6,42.7,30.21,ESE,103,0.0,0.0,77,0.00,CLR,,0.00,WeatherDisplay:10.37,2013-09-06 05:02:00,
2013-09-06 01:07:00,49.6,42.7,30.21,East,99,4.6,0.0,77,0.00,CLR,,0.00,WeatherDisplay:10.37,2013-09-06 05:07:00,
2013-09-06 01:12:00,49.5,42.5,30.21,NE,47,5.8,5.8,77,0.00,CLR,,0.00,WeatherDisplay:10.37,2013-09-06 05:12:00,
2013-09-06 01:17:00,49.5,42.5,30.21,NE,51,2.7,0.0,77,0.00,CLR,,0.00,WeatherDisplay:10.37,2013-09-06 05:17:00,
2013-09-06 01:22:00,49.3,42.4,30.21,East,93,4.6,4.6,77,0.00,CLR,,0.00,WeatherDisplay:10.37,2013-09-06 05:22:00,
2013-09-06 01:27:00,49.3,42.4,30.21,ESE,108,5.8,5.8,77,0.00,CLR,,0.00,WeatherDisplay:10.37,2013-09-06 05:27:00,
2013-09-06 01:32:00,49.3,42.4,30.21,SE,140,4.6,4.6,77,0.00,CLR,,0.00,WeatherDisplay:10.37,2013-09-06 05:32:00,
2013-09-06 01:37:00,49.3,42.4,30.21,East,87,2.3,2.3,77,0.00,CLR,,0.00,WeatherDisplay:10.37,2013-09-06 05:37:00,
2013-09-06 01:42:00,48.9,42.0,30.21,ESE,121,3.5,3.5,77,0.00,CLR,,0.00,WeatherDisplay:10.37,2013-09-06 05:42:00,
2013-09-06 01:47:00,48.6,41.7,30.21,ESE,118,3.5,0.0,77,0.00,CLR,,0.00,WeatherDisplay:10.37,2013-09-06 05:47:00,
2013-09-06 01:53:00,48.0,41.2,30.21,ESE,104,2.3,0.0,77,0.00,CLR,,0.00,WeatherDisplay:10.37,2013-09-06 05:53:00,
2013-09-06 01:58:00,47.7,40.8,30.21,ESE,116,3.5,0.0,77,0.00,CLR,,0.00,WeatherDisplay:10.37,2013-09-06 05:58:00,
2013-09-06 02:03:00,47.5,40.6,30.21,East,95,3.5,0.0,77,0.00,CLR,,0.00,WeatherDisplay:10.37,2013-09-06 06:03:00,
2013-09-06 02:08:00,47.3,40.8,30.21,ENE,74,3.5,0.0,78,0.00,CLR,,0.00,WeatherDisplay:10.37,2013-09-06 06:08:00,
2013-09-06 02:13:00,47.3,41.1,30.21,East,100,3.5,0.0,79,0.00,CLR,,0.00,WeatherDisplay:10.37,2013-09-06 06:13:00,
2013-09-06 02:18:00,47.3,41.1,30.21,SE,137,3.5,3.5,79,0.00,CLR,,0.00,WeatherDisplay:10.37,2013-09-06 06:18:00,
2013-09-06 02:23:00,47.1,40.9,30.21,SE,125,3.5,3.5,79,0.00,CLR,,0.00,WeatherDisplay:10.37,2013-09-06 06:23:00,
2013-09-06 02:28:00,46.9,41.1,30.21,ESE,110,4.6,4.6,80,0.00,CLR,,0.00,WeatherDisplay:10.37,2013-09-06 06:28:00,
2013-09-06 02:33:00,46.9,41.4,30.21,SE,139,3.5,0.0,81,0.00,CLR,,0.00,WeatherDisplay:10.37,2013-09-06 06:33:00,
2013-09-06 02:38:00,46.8,41.6,30.21,East,95,3.5,3.5,82,0.00,CLR,,0.00,WeatherDisplay:10.37,2013-09-06 06:38:00,
2013-09-06 02:43:00,46.9,41.7,30.21,East,101,3.5,3.5,82,0.00,CLR,,0.00,WeatherDisplay:10.37,2013-09-06 06:43:00,
2013-09-06 02:48:00,47.3,42.4,30.21,ESE,123,3.5,0.0,83,0.00,CLR,,0.00,WeatherDisplay:10.37,2013-09-06 06:48:00,
2013-09-06 02:53:00,47.3,42.4,30.21,East,97,0.0,0.0,83,0.00,CLR,,0.00,WeatherDisplay:10.37,2013-09-06 06:53:00,
2013-09-06 02:58:00,47.5,42.3,30.21,East,90,0.0,0.0,82,0.00,CLR,,0.00,WeatherDisplay:10.37,2013-09-06 06:58:00,
2013-09-06 03:03:00,47.7,42.4,30.21,ESE,104,3.5,0.0,82,0.00,CLR,,0.00,WeatherDisplay:10.37,2013-09-06 07:03:00,
2013-09-06 03:08:00,47.7,42.1,30.21,SSW,197,2.3,0.0,81,0.00,CLR,,0.00,WeatherDisplay:10.37,2013-09-06 07:08:00,
2013-09-06 03:13:00,47.7,41.8,30.21,East,85,2.3,0.0,80,0.00,CLR,,0.00,WeatherDisplay:10.37,2013-09-06 07:13:00,
2013-09-06 03:18:00,47.7,41.8,30.21,SE,126,2.3,0.0,80,0.00,CLR,,0.00,WeatherDisplay:10.37,2013-09-06 07:18:00,
2013-09-06 03:23:00,47.3,41.1,30.21,ESE,109,3.5,3.5,79,0.00,CLR,,0.00,WeatherDisplay:10.37,2013-09-06 07:23:00,
2013-09-06 03:28:00,47.1,40.9,30.21,SE,146,3.5,3.5,79,0.00,CLR,,0.00,WeatherDisplay:10.37,2013-09-06 07:28:00,
2013-09-06 03:33:00,46.8,40.3,30.21,SE,128,3.5,3.5,78,0.00,CLR,,0.00,WeatherDisplay:10.37,2013-09-06 07:33:00,
2013-09-06 03:38:00,46.4,39.9,30.21,ESE,109,2.3,0.0,78,0.00,CLR,,0.00,WeatherDisplay:10.37,2013-09-06 07:38:00,
2013-09-06 03:43:00,46.4,40.2,30.21,SE,124,3.5,0.0,79,0.00,CLR,,0.00,WeatherDisplay:10.37,2013-09-06 07:43:00,
2013-09-06 03:48:00,46.4,40.2,30.21,SE,141,3.5,3.5,79,0.00,CLR,,0.00,WeatherDisplay:10.37,2013-09-06 07:48:00,
2013-09-06 03:53:00,46.2,40.1,30.21,SE,141,0.0,0.0,79,0.00,CLR,,0.00,WeatherDisplay:10.37,2013-09-06 07:53:00,
2013-09-06 03:58:00,46.2,40.4,30.21,East,91,0.0,0.0,80,0.00,CLR,,0.00,WeatherDisplay:10.37,2013-09-06 07:58:00,
2013-09-06 04:03:00,46.2,40.4,30.21,SE,133,3.6,0.0,80,0.00,CLR,,0.00,WeatherDisplay:10.37,2013-09-06 08:03:00,
2013-09-06 04:08:00,46.0,40.2,30.21,ESE,114,3.5,3.5,80,0.00,CLR,,0.00,WeatherDisplay:10.37,2013-09-06 08:08:00,
2013-09-06 04:13:00,46.0,40.2,30.21,ESE,118,3.5,3.5,80,0.00,CLR,,0.00,WeatherDisplay:10.37,2013-09-06 08:13:00,
2013-09-06 04:18:00,45.9,40.0,30.21,ESE,112,2.3,0.0,80,0.00,CLR,,0.00,WeatherDisplay:10.37,2013-09-06 08:18:00,
2013-09-06 04:23:00,45.5,39.7,30.21,ESE,113,2.3,0.0,80,0.00,CLR,,0.00,WeatherDisplay:10.37,2013-09-06 08:23:00,
2013-09-06 04:28:00,45.3,39.8,30.21,ESE,103,3.5,3.5,81,0.00,CLR,,0.00,WeatherDisplay:10.37,2013-09-06 08:28:00,
2013-09-06 04:33:00,45.3,39.8,30.21,ESE,122,3.5,3.5,81,0.00,CLR,,0.00,WeatherDisplay:10.37,2013-09-06 08:33:00,
2013-09-06 04:38:00,45.3,40.1,30.21,ESE,105,3.5,3.5,82,0.00,CLR,,0.00,WeatherDisplay:10.37,2013-09-06 08:38:00,
2013-09-06 04:43:00,45.3,40.1,30.21,ESE,123,3.5,0.0,82,0.00,CLR,,0.00,WeatherDisplay:10.37,2013-09-06 08:43:00,
2013-09-06 04:48:00,45.5,40.3,30.21,SE,126,0.0,0.0,82,0.00,CLR,,0.00,WeatherDisplay:10.37,2013-09-06 08:48:00,
2013-09-06 04:53:00,45.5,40.3,30.21,SE,126,3.5,3.5,82,0.00,CLR,,0.00,WeatherDisplay:10.37,2013-09-06 08:53:00,
2013-09-06 04:58:00,45.5,40.3,30.21,SE,132,3.5,3.5,82,0.00,CLR,,0.00,WeatherDisplay:10.37,2013-09-06 08:58:00,
2013-09-06 05:03:00,45.3,40.1,30.21,SSE,149,3.5,3.5,82,0.00,CLR,,0.00,WeatherDisplay:10.37,2013-09-06 09:03:00,
2013-09-06 05:08:00,45.3,40.5,30.21,SE,133,2.3,0.0,83,0.00,CLR,,0.00,WeatherDisplay:10.37,2013-09-06 09:08:00,
2013-09-06 05:13:00,45.5,40.6,30.21,SE,131,3.5,3.5,83,0.00,CLR,,0.00,WeatherDisplay:10.37,2013-09-06 09:13:00,
2013-09-06 05:18:00,45.5,40.6,30.21,ESE,123,2.7,2.7,83,0.00,CLR,,0.00,WeatherDisplay:10.37,2013-09-06 09:18:00,
2013-09-06 05:23:00,45.5,40.6,30.24,SE,142,3.5,3.5,83,0.00,CLR,,0.00,WeatherDisplay:10.37,2013-09-06 09:23:00,
2013-09-06 05:28:00,45.5,40.6,30.24,SE,127,3.6,3.6,83,0.00,CLR,,0.00,WeatherDisplay:10.37,2013-09-06 09:28:00,
2013-09-06 05:33:00,45.3,40.5,30.24,SE,125,3.5,3.5,83,0.00,CLR,,0.00,WeatherDisplay:10.37,2013-09-06 09:33:00,
2013-09-06 05:38:00,45.1,40.3,30.24,ESE,123,3.5,3.5,83,0.00,CLR,,0.00,WeatherDisplay:10.37,2013-09-06 09:38:00,
2013-09-06 05:43:00,45.0,40.4,30.24,ESE,119,3.5,3.5,84,0.00,CLR,,0.00,WeatherDisplay:10.37,2013-09-06 09:43:00,
2013-09-06 05:48:00,44.8,40.2,30.24,ESE,115,4.0,4.0,84,0.00,CLR,,0.00,WeatherDisplay:10.37,2013-09-06 09:48:00,
2013-09-06 05:53:00,44.8,40.2,30.24,SE,136,3.5,3.5,84,0.00,CLR,,0.00,WeatherDisplay:10.37,2013-09-06 09:53:00,
2013-09-06 05:58:00,44.8,40.2,30.24,ESE,118,3.5,0.0,84,0.00,CLR,,0.00,WeatherDisplay:10.37,2013-09-06 09:58:00,
2013-09-06 06:03:00,44.6,40.4,30.24,ESE,122,3.5,3.5,85,0.00,CLR,,0.00,WeatherDisplay:10.37,2013-09-06 10:03:00,
2013-09-06 06:08:00,44.8,40.5,30.24,ESE,115,3.5,3.5,85,0.00,CLR,,0.00,WeatherDisplay:10.37,2013-09-06 10:08:00,
2013-09-06 06:13:00,44.8,40.5,30.24,ESE,115,3.5,0.0,85,0.00,CLR,,0.00,WeatherDisplay:10.37,2013-09-06 10:13:00,
2013-09-06 06:18:00,44.8,40.5,30.24,ESE,114,4.0,4.0,85,0.00,CLR,,0.00,WeatherDisplay:10.37,2013-09-06 10:18:00,
2013-09-06 06:23:00,44.8,40.5,30.24,ESE,111,2.3,2.3,85,0.00,CLR,,0.00,WeatherDisplay:10.37,2013-09-06 10:23:00,
2013-09-06 06:28:00,44.8,40.5,30.24,SE,132,4.6,4.6,85,0.00,CLR,,0.00,WeatherDisplay:10.37,2013-09-06 10:28:00,
2013-09-06 06:33:00,44.8,40.5,30.24,SE,126,2.7,2.7,85,0.00,CLR,,0.00,WeatherDisplay:10.37,2013-09-06 10:33:00,
2013-09-06 06:38:00,44.8,40.5,30.24,SE,129,2.3,0.0,85,0.00,CLR,,0.00,WeatherDisplay:10.37,2013-09-06 10:38:00,
2013-09-06 06:43:00,44.6,40.4,30.24,ESE,118,2.3,2.3,85,0.00,CLR,,0.00,WeatherDisplay:10.37,2013-09-06 10:43:00,
2013-09-06 06:48:00,44.4,40.5,30.24,SE,126,3.5,3.5,86,0.00,CLR,,0.00,WeatherDisplay:10.37,2013-09-06 10:48:00,
2013-09-06 06:53:00,44.2,40.3,30.24,SE,141,3.5,0.0,86,0.00,CLR,,0.00,WeatherDisplay:10.37,2013-09-06 10:53:00,
2013-09-06 06:58:00,44.1,40.4,30.24,SE,136,2.3,2.3,87,0.00,CLR,,0.00,WeatherDisplay:10.37,2013-09-06 10:58:00,
2013-09-06 07:03:00,44.1,40.4,30.24,SE,129,2.3,0.0,87,0.00,CLR,,0.00,WeatherDisplay:10.37,2013-09-06 11:03:00,
2013-09-06 07:08:00,44.1,40.4,30.24,ESE,117,3.5,0.0,87,0.00,CLR,,0.00,WeatherDisplay:10.37,2013-09-06 11:08:00,
2013-09-06 07:13:00,44.1,40.4,30.24,ESE,119,0.0,0.0,87,0.00,CLR,,0.00,WeatherDisplay:10.37,2013-09-06 11:13:00,
2013-09-06 07:18:00,43.9,40.3,30.24,ESE,120,3.5,3.5,87,0.00,CLR,,0.00,WeatherDisplay:10.37,2013-09-06 11:18:00,
2013-09-06 07:23:00,44.1,40.7,30.24,ESE,120,0.0,0.0,88,0.00,CLR,,0.00,WeatherDisplay:10.37,2013-09-06 11:23:00,
2013-09-06 07:28:00,44.1,40.7,30.24,ESE,119,3.5,0.0,88,0.00,CLR,,0.00,WeatherDisplay:10.37,2013-09-06 11:28:00,
2013-09-06 07:33:00,44.2,41.2,30.24,ESE,107,3.5,3.5,89,0.00,CLR,,0.00,WeatherDisplay:10.37,2013-09-06 11:33:00,
2013-09-06 07:38:00,44.2,41.2,30.24,SE,130,3.6,3.6,89,0.00,CLR,,0.00,WeatherDisplay:10.37,2013-09-06 11:38:00,
2013-09-06 07:43:00,44.6,41.6,30.24,SE,136,3.5,3.5,89,0.00,CLR,,0.00,WeatherDisplay:10.37,2013-09-06 11:43:00,
2013-09-06 07:48:00,44.8,41.7,30.24,SE,126,3.5,3.5,89,0.00,CLR,,0.00,WeatherDisplay:10.37,2013-09-06 11:48:00,
2013-09-06 07:53:00,45.0,41.9,30.24,SE,126,0.0,0.0,89,0.00,CLR,,0.00,WeatherDisplay:10.37,2013-09-06 11:53:00,
2013-09-06 07:58:00,45.1,42.4,30.24,ESE,123,0.0,0.0,90,0.00,CLR,,0.00,WeatherDisplay:10.37,2013-09-06 11:58:00,
2013-09-06 08:03:00,45.5,43.0,30.24,SE,129,3.5,3.5,91,0.00,CLR,,0.00,WeatherDisplay:10.37,2013-09-06 12:03:00,
2013-09-06 08:08:00,45.7,43.2,30.24,SE,142,0.0,0.0,91,0.00,CLR,,0.00,WeatherDisplay:10.37,2013-09-06 12:08:00,
2013-09-06 08:13:00,45.9,43.4,30.24,ESE,118,3.5,3.5,91,0.00,CLR,,0.00,WeatherDisplay:10.37,2013-09-06 12:13:00,
2013-09-06 08:18:00,46.2,43.7,30.24,SE,129,2.3,2.3,91,0.00,CLR,,0.00,WeatherDisplay:10.37,2013-09-06 12:18:00,
2013-09-06 08:24:00,46.6,44.1,30.24,SE,129,0.0,0.0,91,0.00,CLR,,0.00,WeatherDisplay:10.37,2013-09-06 12:24:00,
2013-09-06 08:29:00,46.9,44.7,30.24,ESE,118,3.5,0.0,92,0.00,CLR,,0.00,WeatherDisplay:10.37,2013-09-06 12:29:00,
2013-09-06 08:34:00,47.3,45.1,30.24,ESE,118,0.0,0.0,92,0.00,CLR,,0.00,WeatherDisplay:10.37,2013-09-06 12:34:00,
2013-09-06 08:39:00,47.7,45.5,30.24,ESE,118,0.0,0.0,92,0.00,CLR,,0.00,WeatherDisplay:10.37,2013-09-06 12:39:00,
2013-09-06 08:44:00,48.0,45.8,30.24,ESE,118,0.0,0.0,92,0.00,CLR,,0.00,WeatherDisplay:10.37,2013-09-06 12:44:00,
2013-09-06 08:49:00,48.4,46.2,30.24,ESE,118,0.0,0.0,92,0.00,CLR,,0.00,WeatherDisplay:10.37,2013-09-06 12:49:00,
2013-09-06 08:54:00,48.7,46.5,30.27,ENE,77,2.3,0.0,92,0.00,CLR,,0.00,WeatherDisplay:10.37,2013-09-06 12:54:00,
2013-09-06 08:59:00,49.5,46.9,30.27,ENE,62,0.0,0.0,91,0.00,CLR,,0.00,WeatherDisplay:10.37,2013-09-06 12:59:00,
2013-09-06 09:04:00,50.4,47.8,30.27,ENE,62,0.0,0.0,91,0.00,CLR,,0.00,WeatherDisplay:10.37,2013-09-06 13:04:00,
2013-09-06 09:09:00,50.9,47.8,30.27,ENE,62,2.3,0.0,89,0.00,CLR,,0.00,WeatherDisplay:10.37,2013-09-06 13:09:00,
2013-09-06 09:14:00,51.3,47.5,30.27,East,94,3.5,0.0,87,0.00,CLR,,0.00,WeatherDisplay:10.37,2013-09-06 13:14:00,
2013-09-06 09:19:00,51.4,47.1,30.27,ENE,66,3.5,0.0,85,0.00,CLR,,0.00,WeatherDisplay:10.37,2013-09-06 13:19:00,
2013-09-06 09:24:00,51.6,46.9,30.27,ESE,122,4.0,4.0,84,0.00,CLR,,0.00,WeatherDisplay:10.37,2013-09-06 13:24:00,
2013-09-06 09:29:00,51.8,46.5,30.27,ESE,120,3.5,3.5,82,0.00,CLR,,0.00,WeatherDisplay:10.37,2013-09-06 13:29:00,
2013-09-06 09:34:00,52.2,46.8,30.27,East,91,0.0,0.0,82,0.00,CLR,,0.00,WeatherDisplay:10.37,2013-09-06 13:34:00,
2013-09-06 09:39:00,52.3,46.4,30.27,ESE,112,0.0,0.0,80,0.00,CLR,,0.00,WeatherDisplay:10.37,2013-09-06 13:39:00,
2013-09-06 09:44:00,52.9,45.9,30.27,ESE,111,0.0,0.0,77,0.00,CLR,,0.00,WeatherDisplay:10.37,2013-09-06 13:44:00,
2013-09-06 09:49:00,53.1,46.0,30.27,SE,140,0.0,0.0,77,0.00,CLR,,0.00,WeatherDisplay:10.37,2013-09-06 13:49:00,
2013-09-06 09:54:00,53.4,46.0,30.27,SE,128,3.5,3.6,76,0.00,CLR,,0.00,WeatherDisplay:10.37,2013-09-06 13:54:00,
2013-09-06 09:59:00,54.1,46.0,30.27,NNW,338,2.3,0.0,74,0.00,CLR,,0.00,WeatherDisplay:10.37,2013-09-06 13:59:00,
2013-09-06 10:04:00,54.3,46.2,30.27,ESE,111,3.5,0.0,74,0.00,CLR,,0.00,WeatherDisplay:10.37,2013-09-06 14:04:00,
2013-09-06 10:09:00,54.7,46.2,30.27,NW,308,2.3,0.0,73,0.00,CLR,,0.00,WeatherDisplay:10.37,2013-09-06 14:09:00,
2013-09-06 10:14:00,55.2,46.3,30.27,SE,139,3.1,3.1,72,0.00,CLR,,0.00,WeatherDisplay:10.37,2013-09-06 14:14:00,
2013-09-06 10:19:00,56.1,46.5,30.27,SE,130,2.3,0.0,70,0.00,CLR,,0.00,WeatherDisplay:10.37,2013-09-06 14:19:00,
2013-09-06 10:24:00,57.6,47.1,30.27,North,353,3.6,0.0,68,0.00,CLR,,0.00,WeatherDisplay:10.37,2013-09-06 14:24:00,
2013-09-06 10:29:00,58.1,47.2,30.27,NW,321,3.5,0.0,67,0.00,CLR,,0.00,WeatherDisplay:10.37,2013-09-06 14:29:00,
2013-09-06 10:34:00,58.5,47.1,30.27,North,0,3.5,3.5,66,0.00,CLR,,0.00,WeatherDisplay:10.37,2013-09-06 14:34:00,
2013-09-06 10:39:00,59.2,47.8,30.27,West,274,3.5,3.5,66,0.00,CLR,,0.00,WeatherDisplay:10.37,2013-09-06 14:39:00,
2013-09-06 10:44:00,59.9,48.1,30.27,North,10,2.3,2.3,65,0.00,CLR,,0.00,WeatherDisplay:10.37,2013-09-06 14:44:00,
2013-09-06 10:49:00,60.1,47.9,30.27,WNW,283,4.0,4.0,64,0.00,CLR,,0.00,WeatherDisplay:10.37,2013-09-06 14:49:00,
2013-09-06 10:54:00,60.4,48.2,30.27,NW,319,5.8,5.8,64,0.00,CLR,,0.00,WeatherDisplay:10.37,2013-09-06 14:54:00,
2013-09-06 10:59:00,60.4,47.8,30.27,NNW,338,3.5,3.5,63,0.00,CLR,,0.00,WeatherDisplay:10.37,2013-09-06 14:59:00,
2013-09-06 11:04:00,60.6,47.9,30.27,WNW,291,3.5,3.5,63,0.00,CLR,,0.00,WeatherDisplay:10.37,2013-09-06 15:04:00,
2013-09-06 11:09:00,61.0,48.3,30.27,WNW,287,4.5,4.5,63,0.00,CLR,,0.00,WeatherDisplay:10.37,2013-09-06 15:09:00,
2013-09-06 11:14:00,61.2,48.5,30.27,NW,320,4.6,4.6,63,0.00,CLR,,0.00,WeatherDisplay:10.37,2013-09-06 15:14:00,
2013-09-06 11:19:00,61.7,49.0,30.27,WNW,282,4.6,4.6,63,0.00,CLR,,0.00,WeatherDisplay:10.37,2013-09-06 15:19:00,
2013-09-06 11:24:00,61.9,48.3,30.24,NNW,338,5.8,0.0,61,0.00,CLR,,0.00,WeatherDisplay:10.37,2013-09-06 15:24:00,
2013-09-06 11:29:00,62.1,48.4,30.24,NNW,337,3.5,3.5,61,0.00,CLR,,0.00,WeatherDisplay:10.37,2013-09-06 15:29:00,
2013-09-06 11:34:00,62.2,48.6,30.24,North,0,5.8,5.8,61,0.00,CLR,,0.00,WeatherDisplay:10.37,2013-09-06 15:34:00,
2013-09-06 11:39:00,62.2,48.6,30.24,NW,319,2.3,0.0,61,0.00,CLR,,0.00,WeatherDisplay:10.37,2013-09-06 15:39:00,
2013-09-06 11:44:00,62.4,48.8,30.24,WSW,251,0.0,0.0,61,0.00,CLR,,0.00,WeatherDisplay:10.37,2013-09-06 15:44:00,
2013-09-06 11:49:00,62.8,48.7,30.24,ESE,121,0.0,0.0,60,0.00,CLR,,0.00,WeatherDisplay:10.37,2013-09-06 15:49:00,
2013-09-06 11:54:00,63.3,49.2,30.24,WSW,258,3.5,0.0,60,0.00,CLR,,0.00,WeatherDisplay:10.37,2013-09-06 15:54:00,
2013-09-06 11:59:00,63.9,49.7,30.24,WSW,254,3.5,3.6,60,0.00,CLR,,0.00,WeatherDisplay:10.37,2013-09-06 15:59:00,
2013-09-06 12:04:00,63.9,48.8,30.24,NW,311,3.5,3.5,58,0.00,CLR,,0.00,WeatherDisplay:10.37,2013-09-06 16:04:00,
2013-09-06 12:09:00,63.5,48.5,30.24,NW,310,0.0,0.0,58,0.00,CLR,,0.00,WeatherDisplay:10.37,2013-09-06 16:09:00,
2013-09-06 12:14:00,63.7,48.6,30.24,West,279,0.0,0.0,58,0.00,CLR,,0.00,WeatherDisplay:10.37,2013-09-06 16:14:00,
2013-09-06 12:19:00,64.2,49.1,30.24,North,357,0.0,0.0,58,0.00,CLR,,0.00,WeatherDisplay:10.37,2013-09-06 16:19:00,
2013-09-06 12:24:00,64.4,48.8,30.24,South,172,3.5,0.0,57,0.00,CLR,,0.00,WeatherDisplay:10.37,2013-09-06 16:24:00,
2013-09-06 12:29:00,64.2,49.1,30.24,SW,234,3.5,0.0,58,0.00,CLR,,0.00,WeatherDisplay:10.37,2013-09-06 16:29:00,
2013-09-06 12:34:00,64.4,48.8,30.24,SSE,163,2.3,0.0,57,0.00,CLR,,0.00,WeatherDisplay:10.37,2013-09-06 16:34:00,
2013-09-06 12:39:00,64.9,49.3,30.24,NW,320,2.3,0.0,57,0.00,CLR,,0.00,WeatherDisplay:10.37,2013-09-06 16:39:00,
2013-09-06 12:44:00,65.3,49.7,30.24,NNW,329,2.3,2.3,57,0.00,CLR,,0.00,WeatherDisplay:10.37,2013-09-06 16:44:00,
2013-09-06 12:49:00,65.7,50.0,30.24,WSW,248,3.1,3.1,57,0.00,CLR,,0.00,WeatherDisplay:10.37,2013-09-06 16:49:00,
2013-09-06 12:54:00,65.5,49.8,30.24,NNW,335,5.8,5.8,57,0.00,CLR,,0.00,WeatherDisplay:10.37,2013-09-06 16:54:00,
2013-09-06 12:59:00,65.5,49.8,30.24,SSW,198,3.5,3.5,57,0.00,CLR,,0.00,WeatherDisplay:10.37,2013-09-06 16:59:00,
2013-09-06 13:04:00,65.7,50.0,30.24,WSW,254,5.8,5.8,57,0.00,CLR,,0.00,WeatherDisplay:10.37,2013-09-06 17:04:00,
2013-09-06 13:09:00,66.0,50.3,30.24,NNW,348,5.8,5.8,57,0.00,CLR,,0.00,WeatherDisplay:10.37,2013-09-06 17:09:00,
2013-09-06 13:14:00,66.0,50.3,30.24,WSW,248,5.8,5.8,57,0.00,CLR,,0.00,WeatherDisplay:10.37,2013-09-06 17:14:00,
2013-09-06 13:19:00,66.4,50.7,30.24,WNW,287,2.3,0.0,57,0.00,CLR,,0.00,WeatherDisplay:10.37,2013-09-06 17:19:00,
2013-09-06 13:24:00,66.9,49.2,30.24,North,353,0.0,0.0,53,0.00,CLR,,0.00,WeatherDisplay:10.37,2013-09-06 17:24:00,
2013-09-06 13:29:00,67.3,51.5,30.24,North,353,0.0,0.0,57,0.00,CLR,,0.00,WeatherDisplay:10.37,2013-09-06 17:29:00,
2013-09-06 13:34:00,67.6,49.9,30.24,ENE,58,2.3,0.0,53,0.00,CLR,,0.00,WeatherDisplay:10.37,2013-09-06 17:34:00,
2013-09-06 13:39:00,67.8,50.1,30.24,WNW,286,2.3,0.0,53,0.00,CLR,,0.00,WeatherDisplay:10.37,2013-09-06 17:39:00,
2013-09-06 13:44:00,67.6,49.9,30.24,ESE,115,2.3,0.0,53,0.00,CLR,,0.00,WeatherDisplay:10.37,2013-09-06 17:44:00,
2013-09-06 13:49:00,67.8,50.1,30.24,ESE,123,3.5,3.5,53,0.00,CLR,,0.00,WeatherDisplay:10.37,2013-09-06 17:49:00,
2013-09-06 13:54:00,68.4,50.6,30.21,NNW,343,3.1,0.0,53,0.00,CLR,,0.00,WeatherDisplay:10.37,2013-09-06 17:54:00,
2013-09-06 13:59:00,68.4,50.6,30.21,SSW,196,2.3,0.0,53,0.00,CLR,,0.00,WeatherDisplay:10.37,2013-09-06 17:59:00,
2013-09-06 14:04:00,67.5,49.7,30.21,SSW,208,5.8,5.8,53,0.00,CLR,,0.00,WeatherDisplay:10.37,2013-09-06 18:04:00,
2013-09-06 14:09:00,67.3,49.6,30.21,SW,223,4.0,0.0,53,0.00,CLR,,0.00,WeatherDisplay:10.37,2013-09-06 18:09:00,
2013-09-06 14:14:00,67.3,49.6,30.21,ESE,114,2.3,0.0,53,0.00,CLR,,0.00,WeatherDisplay:10.37,2013-09-06 18:14:00,
2013-09-06 14:19:00,67.6,49.9,30.21,North,8,3.5,3.5,53,0.00,CLR,,0.00,WeatherDisplay:10.37,2013-09-06 18:19:00,
2013-09-06 14:25:00,67.6,49.9,30.21,NE,35,3.5,3.5,53,0.00,CLR,,0.00,WeatherDisplay:10.37,2013-09-06 18:25:00,
2013-09-06 14:30:00,68.0,50.2,30.21,ESE,103,3.5,0.0,53,0.00,CLR,,0.00,WeatherDisplay:10.37,2013-09-06 18:30:00,
2013-09-06 14:35:00,68.2,50.4,30.21,SE,144,3.5,3.5,53,0.00,CLR,,0.00,WeatherDisplay:10.37,2013-09-06 18:35:00,
2013-09-06 14:40:00,68.0,50.2,30.21,SE,141,2.7,2.7,53,0.00,CLR,,0.00,WeatherDisplay:10.37,2013-09-06 18:40:00,
2013-09-06 14:45:00,68.0,50.2,30.21,WSW,250,5.8,0.0,53,0.00,CLR,,0.00,WeatherDisplay:10.37,2013-09-06 18:45:00,
2013-09-06 14:50:00,68.2,50.4,30.21,ENE,58,3.5,3.6,53,0.00,CLR,,0.00,WeatherDisplay:10.37,2013-09-06 18:50:00,
2013-09-06 14:55:00,68.4,50.6,30.21,SSW,210,5.8,5.8,53,0.00,CLR,,0.00,WeatherDisplay:10.37,2013-09-06 18:55:00,
2013-09-06 15:00:00,68.4,50.6,30.21,SE,142,4.6,4.6,53,0.00,CLR,,0.00,WeatherDisplay:10.37,2013-09-06 19:00:00,
2013-09-06 15:05:00,68.4,50.6,30.21,South,170,2.3,0.0,53,0.00,CLR,,0.00,WeatherDisplay:10.37,2013-09-06 19:05:00,
2013-09-06 15:10:00,68.7,50.9,30.21,SSE,155,5.8,5.8,53,0.00,CLR,,0.00,WeatherDisplay:10.37,2013-09-06 19:10:00,
2013-09-06 15:15:00,69.1,51.2,30.21,SE,144,4.6,4.6,53,0.00,CLR,,0.00,WeatherDisplay:10.37,2013-09-06 19:15:00,
2013-09-06 15:20:00,69.3,51.4,30.18,WSW,245,0.0,0.0,53,0.00,CLR,,0.00,WeatherDisplay:10.37,2013-09-06 19:20:00,
2013-09-06 15:25:00,70.0,52.1,30.18,West,260,5.8,5.8,53,0.00,CLR,,0.00,WeatherDisplay:10.37,2013-09-06 19:25:00,
2013-09-06 15:30:00,69.6,51.7,30.18,SSW,208,3.6,3.6,53,0.00,CLR,,0.00,WeatherDisplay:10.37,2013-09-06 19:30:00,
2013-09-06 15:35:00,69.6,51.7,30.18,West,267,3.5,0.0,53,0.00,CLR,,0.00,WeatherDisplay:10.37,2013-09-06 19:35:00,
2013-09-06 15:40:00,69.8,51.9,30.18,NNW,327,0.0,0.0,53,0.00,CLR,,0.00,WeatherDisplay:10.37,2013-09-06 19:40:00,
2013-09-06 15:45:00,69.8,51.9,30.18,SSW,193,3.5,3.5,53,0.00,CLR,,0.00,WeatherDisplay:10.37,2013-09-06 19:45:00,
2013-09-06 15:50:00,70.0,52.1,30.18,ESE,111,4.0,0.0,53,0.00,CLR,,0.00,WeatherDisplay:10.37,2013-09-06 19:50:00,
2013-09-06 15:55:00,70.2,52.2,30.18,SE,134,5.8,5.8,53,0.00,CLR,,0.00,WeatherDisplay:10.37,2013-09-06 19:55:00,
2013-09-06 16:00:00,70.0,52.1,30.18,SSE,150,4.6,4.6,53,0.00,CLR,,0.00,WeatherDisplay:10.37,2013-09-06 20:00:00,
2013-09-06 16:05:00,69.6,51.7,30.18,ENE,77,5.8,5.8,53,0.00,CLR,,0.00,WeatherDisplay:10.37,2013-09-06 20:05:00,
2013-09-06 16:10:00,69.4,51.6,30.18,SE,146,3.5,3.5,53,0.00,CLR,,0.00,WeatherDisplay:10.37,2013-09-06 20:10:00,
2013-09-06 16:15:00,69.4,51.6,30.18,South,171,0.0,0.0,53,0.00,CLR,,0.00,WeatherDisplay:10.37,2013-09-06 20:15:00,
2013-09-06 16:20:00,69.4,51.6,30.18,SSE,150,5.8,5.8,53,0.00,CLR,,0.00,WeatherDisplay:10.37,2013-09-06 20:20:00,
2013-09-06 16:25:00,69.4,51.6,30.18,ENE,68,3.5,3.5,53,0.00,CLR,,0.00,WeatherDisplay:10.37,2013-09-06 20:25:00,
2013-09-06 16:30:00,69.6,51.7,30.18,ESE,118,2.3,0.0,53,0.00,CLR,,0.00,WeatherDisplay:10.37,2013-09-06 20:30:00,
2013-09-06 16:35:00,70.3,52.4,30.18,SE,141,2.7,0.0,53,0.00,CLR,,0.00,WeatherDisplay:10.37,2013-09-06 20:35:00,
2013-09-06 16:40:00,70.0,52.1,30.18,SSW,193,3.5,0.0,53,0.00,CLR,,0.00,WeatherDisplay:10.37,2013-09-06 20:40:00,
2013-09-06 16:45:00,69.8,51.9,30.18,NW,317,3.5,3.5,53,0.00,CLR,,0.00,WeatherDisplay:10.37,2013-09-06 20:45:00,
2013-09-06 16:50:00,69.3,51.4,30.18,SSE,155,0.0,0.0,53,0.00,CLR,,0.00,WeatherDisplay:10.37,2013-09-06 20:50:00,
2013-09-06 16:55:00,69.4,51.6,30.18,South,170,3.5,3.5,53,0.00,CLR,,0.00,WeatherDisplay:10.37,2013-09-06 20:55:00,
2013-09-06 17:00:00,69.6,51.7,30.18,SSW,198,2.3,0.0,53,0.00,CLR,,0.00,WeatherDisplay:10.37,2013-09-06 21:00:00,
2013-09-06 17:05:00,69.8,51.9,30.18,SE,145,3.5,0.0,53,0.00,CLR,,0.00,WeatherDisplay:10.37,2013-09-06 21:05:00,
2013-09-06 17:10:00,69.6,51.7,30.18,SSW,196,2.3,0.0,53,0.00,CLR,,0.00,WeatherDisplay:10.37,2013-09-06 21:10:00,
2013-09-06 17:15:00,69.3,51.4,30.18,ESE,110,2.3,0.0,53,0.00,CLR,,0.00,WeatherDisplay:10.37,2013-09-06 21:15:00,
2013-09-06 17:20:00,69.4,51.6,30.15,SE,146,3.5,3.5,53,0.00,CLR,,0.00,WeatherDisplay:10.37,2013-09-06 21:20:00,
2013-09-06 17:25:00,68.9,51.1,30.15,SSW,202,5.8,5.8,53,0.00,CLR,,0.00,WeatherDisplay:10.37,2013-09-06 21:25:00,
2013-09-06 17:30:00,68.5,50.7,30.15,SW,234,3.6,0.0,53,0.00,CLR,,0.00,WeatherDisplay:10.37,2013-09-06 21:30:00,
2013-09-06 17:35:00,68.2,50.4,30.15,WSW,237,0.0,0.0,53,0.00,CLR,,0.00,WeatherDisplay:10.37,2013-09-06 21:35:00,
2013-09-06 17:40:00,67.6,49.9,30.15,WSW,237,2.3,0.0,53,0.00,CLR,,0.00,WeatherDisplay:10.37,2013-09-06 21:40:00,
2013-09-06 17:45:00,67.5,49.7,30.15,WSW,237,0.0,0.0,53,0.00,CLR,,0.00,WeatherDisplay:10.37,2013-09-06 21:45:00,
2013-09-06 17:50:00,67.3,49.6,30.18,WSW,237,0.0,0.0,53,0.00,CLR,,0.00,WeatherDisplay:10.37,2013-09-06 21:50:00,
2013-09-06 17:55:00,66.4,48.7,30.18,WSW,252,3.1,0.0,53,0.00,CLR,,0.00,WeatherDisplay:10.37,2013-09-06 21:55:00,
2013-09-06 18:00:00,65.1,48.1,30.18,SW,233,0.0,0.0,54,0.00,CLR,,0.00,WeatherDisplay:10.37,2013-09-06 22:00:00,
2013-09-06 18:05:00,64.4,47.4,30.18,NNW,327,5.8,5.8,54,0.00,CLR,,0.00,WeatherDisplay:10.37,2013-09-06 22:05:00,
2013-09-06 18:10:00,63.9,48.8,30.18,NNW,327,0.0,0.0,58,0.00,CLR,,0.00,WeatherDisplay:10.37,2013-09-06 22:10:00,
2013-09-06 18:15:00,63.5,48.5,30.18,NNW,335,3.6,0.0,58,0.00,CLR,,0.00,WeatherDisplay:10.37,2013-09-06 22:15:00,
2013-09-06 18:20:00,63.0,47.9,30.18,NNW,328,2.3,0.0,58,0.00,CLR,,0.00,WeatherDisplay:10.37,2013-09-06 22:20:00,
2013-09-06 18:25:00,62.6,48.5,30.18,NNW,333,2.3,0.0,60,0.00,CLR,,0.00,WeatherDisplay:10.37,2013-09-06 22:25:00,
2013-09-06 18:30:00,62.1,48.4,30.18,NNW,333,0.0,0.0,61,0.00,CLR,,0.00,WeatherDisplay:10.37,2013-09-06 22:30:00,
2013-09-06 18:35:00,61.7,48.1,30.15,NNW,339,0.0,0.0,61,0.00,CLR,,0.00,WeatherDisplay:10.37,2013-09-06 22:35:00,
2013-09-06 18:40:00,61.2,48.5,30.15,NNW,339,0.0,0.0,63,0.00,CLR,,0.00,WeatherDisplay:10.37,2013-09-06 22:40:00,
2013-09-06 18:45:00,60.8,48.1,30.15,NNW,339,0.0,0.0,63,0.00,CLR,,0.00,WeatherDisplay:10.37,2013-09-06 22:45:00,
2013-09-06 18:50:00,60.6,47.9,30.15,NNW,339,0.0,0.0,63,0.00,CLR,,0.00,WeatherDisplay:10.37,2013-09-06 22:50:00,
2013-09-06 18:55:00,60.4,47.8,30.15,NNW,339,0.0,0.0,63,0.00,CLR,,0.00,WeatherDisplay:10.37,2013-09-06 22:55:00,
2013-09-06 19:00:00,60.1,47.4,30.15,NNW,339,0.0,0.0,63,0.00,CLR,,0.00,WeatherDisplay:10.37,2013-09-06 23:00:00,
2013-09-06 19:05:00,59.7,47.1,30.15,NNW,339,0.0,0.0,63,0.00,CLR,,0.00,WeatherDisplay:10.37,2013-09-06 23:05:00,
2013-09-06 19:10:00,59.4,46.8,30.15,NNW,339,0.0,0.0,63,0.00,CLR,,0.00,WeatherDisplay:10.37,2013-09-06 23:10:00,
2013-09-06 19:15:00,59.0,46.4,30.15,NW,326,0.0,0.0,63,0.00,CLR,,0.00,WeatherDisplay:10.37,2013-09-06 23:15:00,
2013-09-06 19:20:00,58.6,46.5,30.18,NW,326,0.0,0.0,64,0.00,CLR,,0.00,WeatherDisplay:10.37,2013-09-06 23:20:00,
2013-09-06 19:25:00,58.1,46.0,30.18,NNW,338,3.6,0.0,64,0.00,CLR,,0.00,WeatherDisplay:10.37,2013-09-06 23:25:00,
2013-09-06 19:30:00,57.7,45.6,30.18,NNW,344,0.0,0.0,64,0.00,CLR,,0.00,WeatherDisplay:10.37,2013-09-06 23:30:00,
2013-09-06 19:35:00,57.6,45.9,30.18,NNW,344,0.0,0.0,65,0.00,CLR,,0.00,WeatherDisplay:10.37,2013-09-06 23:35:00,
2013-09-06 19:40:00,57.2,45.5,30.18,NNW,344,0.0,0.0,65,0.00,CLR,,0.00,WeatherDisplay:10.37,2013-09-06 23:40:00,
2013-09-06 19:45:00,56.7,45.4,30.18,NNW,344,0.0,0.0,66,0.00,CLR,,0.00,WeatherDisplay:10.37,2013-09-06 23:45:00,
2013-09-06 19:50:00,56.5,45.3,30.18,NNW,344,0.0,0.0,66,0.00,CLR,,0.00,WeatherDisplay:10.37,2013-09-06 23:50:00,
2013-09-06 19:56:00,56.3,45.1,30.18,NNW,344,0.0,0.0,66,0.00,CLR,,0.00,WeatherDisplay:10.37,2013-09-06 23:56:00,
2013-09-06 20:01:00,55.9,44.7,30.18,NNW,344,0.0,0.0,66,0.00,CLR,,0.00,WeatherDisplay:10.37,2013-09-07 00:01:00,
2013-09-06 20:06:00,55.9,44.7,30.18,NNW,344,0.0,0.0,66,0.00,CLR,,0.00,WeatherDisplay:10.37,2013-09-07 00:06:00,
2013-09-06 20:11:00,55.8,44.6,30.18,NNW,344,0.0,0.0,66,0.00,CLR,,0.00,WeatherDisplay:10.37,2013-09-07 00:11:00,
2013-09-06 20:16:00,55.6,44.4,30.18,NNW,344,0.0,0.0,66,0.00,CLR,,0.00,WeatherDisplay:10.37,2013-09-07 00:16:00,
2013-09-06 20:21:00,55.2,44.1,30.18,North,2,0.0,0.0,66,0.00,CLR,,0.00,WeatherDisplay:10.37,2013-09-07 00:21:00,
2013-09-06 20:26:00,54.9,43.7,30.15,North,10,0.0,0.0,66,0.00,CLR,,0.00,WeatherDisplay:10.37,2013-09-07 00:26:00,
2013-09-06 20:31:00,54.7,43.5,30.15,East,89,0.0,0.0,66,0.00,CLR,,0.00,WeatherDisplay:10.37,2013-09-07 00:31:00,
2013-09-06 20:36:00,54.5,43.4,30.18,SE,124,2.3,0.0,66,0.00,CLR,,0.00,WeatherDisplay:10.37,2013-09-07 00:36:00,
2013-09-06 20:41:00,54.5,43.4,30.18,NNE,28,0.0,0.0,66,0.00,CLR,,0.00,WeatherDisplay:10.37,2013-09-07 00:41:00,
2013-09-06 20:46:00,54.5,43.4,30.18,ENE,64,0.0,0.0,66,0.00,CLR,,0.00,WeatherDisplay:10.37,2013-09-07 00:46:00,
2013-09-06 20:51:00,54.5,43.4,30.15,ENE,64,0.0,0.0,66,0.00,CLR,,0.00,WeatherDisplay:10.37,2013-09-07 00:51:00,
2013-09-06 20:56:00,54.5,43.4,30.15,ENE,67,0.0,0.0,66,0.00,CLR,,0.00,WeatherDisplay:10.37,2013-09-07 00:56:00,
2013-09-06 21:01:00,54.3,43.2,30.15,ENE,75,0.0,0.0,66,0.00,CLR,,0.00,WeatherDisplay:10.37,2013-09-07 01:01:00,
2013-09-06 21:06:00,54.3,43.2,30.15,NE,51,2.3,0.0,66,0.00,CLR,,0.00,WeatherDisplay:10.37,2013-09-07 01:06:00,
2013-09-06 21:11:00,54.1,43.0,30.15,NE,51,0.0,0.0,66,0.00,CLR,,0.00,WeatherDisplay:10.37,2013-09-07 01:11:00,
2013-09-06 21:16:00,54.1,43.0,30.15,NE,54,2.3,0.0,66,0.00,CLR,,0.00,WeatherDisplay:10.37,2013-09-07 01:16:00,
2013-09-06 21:21:00,54.1,43.0,30.15,NE,54,0.0,0.0,66,0.00,CLR,,0.00,WeatherDisplay:10.37,2013-09-07 01:21:00,
2013-09-06 21:26:00,54.0,42.9,30.15,NE,54,0.0,0.0,66,0.00,CLR,,0.00,WeatherDisplay:10.37,2013-09-07 01:26:00,
2013-09-06 21:31:00,53.8,42.7,30.15,NE,54,0.0,0.0,66,0.00,CLR,,0.00,WeatherDisplay:10.37,2013-09-07 01:31:00,
2013-09-06 21:36:00,53.8,42.3,30.18,East,90,0.0,0.0,65,0.00,CLR,,0.00,WeatherDisplay:10.37,2013-09-07 01:36:00,
2013-09-06 21:41:00,53.6,42.1,30.18,ESE,114,2.3,2.3,65,0.00,CLR,,0.00,WeatherDisplay:10.37,2013-09-07 01:41:00,
2013-09-06 21:46:00,53.6,41.7,30.18,ESE,119,3.6,3.6,64,0.00,CLR,,0.00,WeatherDisplay:10.37,2013-09-07 01:46:00,
2013-09-06 21:51:00,53.4,41.9,30.15,ESE,114,3.5,3.5,65,0.00,CLR,,0.00,WeatherDisplay:10.37,2013-09-07 01:51:00,
2013-09-06 21:56:00,53.2,41.8,30.15,ESE,118,3.5,3.5,65,0.00,CLR,,0.00,WeatherDisplay:10.37,2013-09-07 01:56:00,
2013-09-06 22:01:00,53.1,41.6,30.15,SE,131,2.7,0.0,65,0.00,CLR,,0.00,WeatherDisplay:10.37,2013-09-07 02:01:00,
2013-09-06 22:06:00,52.9,41.4,30.15,SE,136,3.5,3.5,65,0.00,CLR,,0.00,WeatherDisplay:10.37,2013-09-07 02:06:00,
2013-09-06 22:11:00,52.7,41.3,30.15,SE,137,4.9,4.9,65,0.00,CLR,,0.00,WeatherDisplay:10.37,2013-09-07 02:11:00,
2013-09-06 22:16:00,52.5,41.1,30.15,SE,135,3.5,3.5,65,0.00,CLR,,0.00,WeatherDisplay:10.37,2013-09-07 02:16:00,
2013-09-06 22:21:00,52.5,41.1,30.15,ESE,118,3.5,3.5,65,0.00,CLR,,0.00,WeatherDisplay:10.37,2013-09-07 02:21:00,
2013-09-06 22:26:00,52.5,41.1,30.15,SE,141,3.5,3.5,65,0.00,CLR,,0.00,WeatherDisplay:10.37,2013-09-07 02:26:00,
2013-09-06 22:31:00,52.5,41.5,30.15,SE,138,3.5,3.5,66,0.00,CLR,,0.00,WeatherDisplay:10.37,2013-09-07 02:31:00,
2013-09-06 22:36:00,52.3,41.3,30.15,SE,142,3.5,3.5,66,0.00,CLR,,0.00,WeatherDisplay:10.37,2013-09-07 02:36:00,
2013-09-06 22:41:00,52.3,41.3,30.15,SE,138,3.5,3.5,66,0.00,CLR,,0.00,WeatherDisplay:10.37,2013-09-07 02:41:00,
2013-09-06 22:46:00,52.3,41.3,30.15,SE,135,3.5,3.5,66,0.00,CLR,,0.00,WeatherDisplay:10.37,2013-09-07 02:46:00,
2013-09-06 22:51:00,52.3,41.3,30.15,SSE,151,3.5,3.5,66,0.00,CLR,,0.00,WeatherDisplay:10.37,2013-09-07 02:51:00,
2013-09-06 22:56:00,52.3,41.3,30.15,SSE,148,3.5,3.5,66,0.00,CLR,,0.00,WeatherDisplay:10.37,2013-09-07 02:56:00,
2013-09-06 23:01:00,52.3,41.3,30.15,SE,127,3.5,3.5,66,0.00,CLR,,0.00,WeatherDisplay:10.37,2013-09-07 03:01:00,
2013-09-06 23:06:00,52.3,40.9,30.15,SE,127,3.5,3.5,65,0.00,CLR,,0.00,WeatherDisplay:10.37,2013-09-07 03:06:00,
2013-09-06 23:11:00,52.3,40.9,30.15,SE,133,2.3,0.0,65,0.00,CLR,,0.00,WeatherDisplay:10.37,2013-09-07 03:11:00,
2013-09-06 23:16:00,52.3,41.3,30.15,SE,143,2.3,0.0,66,0.00,CLR,,0.00,WeatherDisplay:10.37,2013-09-07 03:16:00,
2013-09-06 23:21:00,52.3,41.3,30.15,SSE,167,3.5,0.0,66,0.00,CLR,,0.00,WeatherDisplay:10.37,2013-09-07 03:21:00,
2013-09-06 23:26:00,52.3,41.3,30.15,SSE,168,2.3,0.0,66,0.00,CLR,,0.00,WeatherDisplay:10.37,2013-09-07 03:26:00,
2013-09-06 23:31:00,52.3,41.3,30.15,SSE,164,2.3,2.3,66,0.00,CLR,,0.00,WeatherDisplay:10.37,2013-09-07 03:31:00,
2013-09-06 23:36:00,52.3,41.3,30.15,South,180,3.5,3.5,66,0.00,CLR,,0.00,WeatherDisplay:10.37,2013-09-07 03:36:00,
2013-09-06 23:41:00,52.5,41.5,30.15,SSE,163,3.5,3.5,66,0.00,CLR,,0.00,WeatherDisplay:10.37,2013-09-07 03:41:00,
2013-09-06 23:46:00,52.5,41.9,30.15,SSE,162,3.6,0.0,67,0.00,CLR,,0.00,WeatherDisplay:10.37,2013-09-07 03:46:00,
2013-09-06 23:51:00,52.5,41.9,30.15,SE,141,3.5,3.5,67,0.00,CLR,,0.00,WeatherDisplay:10.37,2013-09-07 03:51:00,
2013-09-06 23:56:00,52.5,41.9,30.15,South,169,3.5,0.0,67,0.00,CLR,,0.00,WeatherDisplay:10.37,2013-09-07 03:56:00,